Forside
METAR-TAF:

METAR-TAF

Lufthavne :

Grayslake, Illinois, USA

Breddekreds: 42-19-29N, længdekreds: 088-04-27W, højde: 240 m

Aktuelle vejr

Denne rapport blev lavet for 10 timer og 34 minutter siden, kl. 13:55 UTC
Vind 9 kt fra sydsydvest med vindstød på up til 14 kt, varierende mellem sydsydøst og sydvest
Temperatur 26°C
Fugtighed 79%
Tryk 1015 hPa
Sigt: 16.1 km
Spredte skyer i en højde af 7000 ft
Brudte skyer i en højde af 8000 ft
Brudte skyer i en højde af 12000 ft

METAR: KMBO 211355Z AUTO 20009G14KT 160V220 10SM SCT070 BKN080 BKN120 26/22 A2997 RMK AO2

Tid: 19:29 (00:29 UTC)


TAF: fraværende

Vejrobservationer og prognoser fra mere end 4000 lufthavne (METAR og TAF).

De gule og røde prikker repræsenterer de meteorologiske stationer.

Flyt musen over at se navnet på stationen.

Så klik over at se vejr observationer og prognoser.

At skifte det kort: Klik på de grønne knapper med et sort kors for at zoome ind; på den grønne knap med en bindestreg for at zoome ud; eller på de grønne pile for tilstødende kort.


METAR-TAF: